Time;durP1;ratioP1;P1;durP2;ratioP2;P2;SDS_P1;SDS_P2;PMS_P1;PMS_P2;Temp;Humidity;BMP_temperature;BMP_pressure;BME280_temperature;BME280_humidity;BME280_pressure;Samples;Min_cycle;Max_cycle;Signal;HPM_P1;HPM_P2
2022/03/16 00:00:02;;;;;;;5.28;2.58;;;22.30;51.70;;;;;;5063095;28;20274;-38
2022/03/16 00:02:28;;;;;;;8.68;2.72;;;22.30;51.70;;;;;;5063582;28;20059;-38
2022/03/16 00:04:55;;;;;;;19.60;3.30;;;22.30;51.50;;;;;;5064041;28;20052;-38
2022/03/16 00:07:22;;;;;;;11.15;3.60;;;22.30;51.80;;;;;;5060918;28;20036;-38
2022/03/16 00:09:48;;;;;;;9.52;3.20;;;22.30;51.80;;;;;;5060391;28;20024;-39
2022/03/16 00:12:14;;;;;;;11.20;3.33;;;22.30;51.50;;;;;;5063903;28;20440;-38
2022/03/16 00:14:40;;;;;;;8.68;3.22;;;22.30;51.50;;;;;;5063792;28;20023;-38
2022/03/16 00:17:07;;;;;;;8.18;2.72;;;22.30;51.40;;;;;;5067095;28;20025;-38
2022/03/16 00:19:33;;;;;;;8.13;3.38;;;22.30;51.60;;;;;;5064429;28;20272;-39
2022/03/16 00:22:00;;;;;;;4.87;2.60;;;22.30;52.00;;;;;;5063759;28;20025;-38
2022/03/16 00:24:26;;;;;;;6.63;3.00;;;22.30;51.30;;;;;;5060995;28;20587;-39
2022/03/16 00:26:53;;;;;;;8.30;3.00;;;22.30;51.30;;;;;;5063414;28;20144;-38
2022/03/16 00:29:19;;;;;;;7.97;3.20;;;22.30;51.40;;;;;;5064099;28;20405;-38
2022/03/16 00:31:45;;;;;;;7.97;2.88;;;22.30;51.40;;;;;;5064053;28;20036;-39
2022/03/16 00:34:11;;;;;;;7.10;2.97;;;22.40;51.20;;;;;;5063141;28;20029;-39
2022/03/16 00:36:37;;;;;;;6.47;2.92;;;22.30;51.10;;;;;;5063705;28;20040;-38
2022/03/16 00:39:04;;;;;;;6.05;2.55;;;22.30;51.30;;;;;;5062606;28;20032;-38
2022/03/16 00:41:31;;;;;;;5.57;2.97;;;22.30;51.10;;;;;;5063842;28;20064;-38
2022/03/16 00:43:57;;;;;;;6.95;3.00;;;22.30;51.20;;;;;;5063705;28;20036;-38
2022/03/16 00:46:23;;;;;;;4.13;2.60;;;22.30;51.10;;;;;;5063732;28;20041;-38
2022/03/16 00:48:49;;;;;;;5.00;2.97;;;22.30;51.20;;;;;;5062010;28;20033;-39
2022/03/16 00:51:15;;;;;;;3.97;2.65;;;22.30;51.20;;;;;;5062537;28;20084;-38
2022/03/16 00:53:42;;;;;;;5.00;3.00;;;22.30;51.30;;;;;;5056668;28;20108;-39
2022/03/16 00:56:08;;;;;;;7.18;2.78;;;22.30;51.00;;;;;;5048382;28;20043;-39
2022/03/16 00:58:35;;;;;;;3.63;2.63;;;22.30;51.10;;;;;;5062736;28;20029;-38
2022/03/16 01:01:01;;;;;;;4.80;2.70;;;22.30;51.00;;;;;;5061730;28;20820;-39
2022/03/16 01:03:30;;;;;;;4.60;3.15;;;22.30;50.90;;;;;;5063149;28;20037;-38
2022/03/16 01:05:56;;;;;;;3.75;2.58;;;22.30;50.90;;;;;;5063519;28;20067;-38
2022/03/16 01:08:22;;;;;;;4.75;2.63;;;22.30;50.90;;;;;;5062888;28;20408;-39
2022/03/16 01:10:48;;;;;;;5.15;2.45;;;22.30;50.90;;;;;;5056329;28;20041;-38
2022/03/16 01:13:14;;;;;;;3.40;2.63;;;22.30;50.90;;;;;;5042463;28;20394;-39
2022/03/16 01:15:40;;;;;;;3.45;2.40;;;22.30;51.10;;;;;;5062741;28;20053;-38
2022/03/16 01:18:07;;;;;;;3.80;2.90;;;22.30;51.00;;;;;;5061526;28;20036;-38
2022/03/16 01:20:33;;;;;;;3.38;2.40;;;22.40;51.00;;;;;;5062086;28;20345;-39
2022/03/16 01:22:59;;;;;;;2.90;2.25;;;22.30;50.90;;;;;;5061737;28;20049;-38
2022/03/16 01:25:26;;;;;;;3.83;2.35;;;22.40;50.90;;;;;;5061191;28;20080;-38
2022/03/16 01:27:52;;;;;;;3.90;2.70;;;22.30;50.90;;;;;;5061843;28;20033;-38
2022/03/16 01:30:18;;;;;;;4.22;2.50;;;22.40;50.80;;;;;;5060974;28;20028;-38
2022/03/16 01:32:44;;;;;;;3.97;2.22;;;22.40;50.80;;;;;;5061858;28;20400;-42
2022/03/16 01:35:10;;;;;;;3.88;2.53;;;22.40;50.80;;;;;;5062166;28;20027;-44
2022/03/16 01:37:37;;;;;;;4.75;2.60;;;22.40;50.80;;;;;;5062050;28;20519;-39
2022/03/16 01:40:05;;;;;;;6.13;2.40;;;22.40;51.00;;;;;;5061253;28;20029;-39
2022/03/16 01:42:32;;;;;;;4.38;2.70;;;22.40;51.00;;;;;;5061861;28;20553;-39
2022/03/16 01:44:58;;;;;;;5.47;2.80;;;22.40;50.80;;;;;;5042695;28;20029;-39
2022/03/16 01:47:25;;;;;;;5.88;2.60;;;22.40;50.70;;;;;;5055952;28;20052;-39
2022/03/16 01:49:53;;;;;;;7.13;2.55;;;22.40;50.70;;;;;;5061010;28;20036;-39
2022/03/16 01:52:21;;;;;;;3.92;2.80;;;22.40;50.70;;;;;;5061227;28;20051;-39
2022/03/16 01:54:47;;;;;;;3.70;2.30;;;22.40;50.70;;;;;;5062634;28;20028;-38
2022/03/16 01:57:15;;;;;;;3.55;2.63;;;22.30;50.60;;;;;;5062354;28;20040;-41
2022/03/16 01:59:41;;;;;;;4.63;2.40;;;22.30;50.60;;;;;;5060873;28;20036;-39
2022/03/16 02:02:08;;;;;;;3.40;2.63;;;22.30;50.50;;;;;;5053873;28;20033;-39
2022/03/16 02:04:34;;;;;;;2.67;2.30;;;22.30;50.50;;;;;;5062474;28;20025;-40
2022/03/16 02:07:00;;;;;;;3.55;2.42;;;22.30;50.60;;;;;;5062276;28;20037;-40
2022/03/16 02:09:26;;;;;;;2.92;2.60;;;22.30;50.50;;;;;;5043035;28;20333;-40
2022/03/16 02:11:53;;;;;;;3.53;2.50;;;22.30;50.30;;;;;;5058829;28;20021;-40
2022/03/16 02:14:19;;;;;;;2.67;1.80;;;22.30;50.50;;;;;;5062237;28;20028;-40
2022/03/16 02:16:48;;;;;;;3.35;2.50;;;22.30;50.40;;;;;;5062320;28;20029;-40
2022/03/16 02:19:14;;;;;;;3.33;2.22;;;22.30;50.40;;;;;;5062165;28;20087;-40
2022/03/16 02:21:41;;;;;;;3.13;2.47;;;22.30;50.40;;;;;;5062104;28;20025;-40
2022/03/16 02:24:07;;;;;;;3.03;2.15;;;22.30;50.30;;;;;;5057874;28;20075;-40
2022/03/16 02:26:34;;;;;;;2.90;2.27;;;22.30;50.40;;;;;;5041992;28;20049;-40
2022/03/16 02:29:00;;;;;;;3.67;2.27;;;22.30;50.50;;;;;;5042367;28;20044;-40
2022/03/16 02:31:26;;;;;;;2.83;2.53;;;22.30;50.40;;;;;;5044419;28;20277;-40
2022/03/16 02:33:52;;;;;;;2.47;2.05;;;22.30;50.40;;;;;;5062273;28;20028;-40
2022/03/16 02:36:19;;;;;;;2.75;2.15;;;22.30;50.40;;;;;;5062204;28;20035;-40
2022/03/16 02:38:45;;;;;;;2.73;2.20;;;22.20;50.30;;;;;;5047823;28;20087;-40
2022/03/16 02:41:11;;;;;;;3.33;2.33;;;22.20;50.30;;;;;;5041860;28;20088;-40
2022/03/16 02:43:38;;;;;;;2.75;2.08;;;22.20;50.30;;;;;;5041998;28;20029;-40
2022/03/16 02:46:04;;;;;;;2.45;2.13;;;22.20;50.30;;;;;;5042218;28;20398;-40
2022/03/16 02:48:30;;;;;;;2.80;2.35;;;22.20;50.30;;;;;;5040704;28;20037;-40
2022/03/16 02:50:56;;;;;;;2.97;2.30;;;22.20;50.40;;;;;;5041954;28;20040;-40
2022/03/16 02:53:22;;;;;;;2.60;2.10;;;22.20;50.30;;;;;;5043645;28;20429;-41
2022/03/16 02:55:48;;;;;;;3.00;2.25;;;22.20;50.30;;;;;;5061825;28;20033;-40
2022/03/16 02:58:15;;;;;;;2.83;2.30;;;22.20;50.40;;;;;;5060212;28;20021;-40
2022/03/16 03:00:42;;;;;;;2.97;2.03;;;22.20;50.40;;;;;;5060069;28;20104;-40
2022/03/16 03:03:08;;;;;;;3.53;2.40;;;22.20;50.40;;;;;;5061815;28;20033;-41
2022/03/16 03:05:34;;;;;;;2.85;2.17;;;22.20;50.30;;;;;;5059495;28;20059;-40
2022/03/16 03:08:00;;;;;;;3.22;2.22;;;22.20;50.40;;;;;;5054057;28;20037;-40
2022/03/16 03:10:26;;;;;;;2.45;2.17;;;22.20;50.50;;;;;;5046264;28;20056;-40
2022/03/16 03:12:53;;;;;;;2.50;2.30;;;22.20;50.50;;;;;;5063946;28;20025;-40
2022/03/16 03:15:19;;;;;;;3.00;2.30;;;22.20;50.40;;;;;;5065553;28;20025;-40
2022/03/16 03:17:45;;;;;;;2.70;2.22;;;22.10;50.40;;;;;;5065612;28;20029;-40
2022/03/16 03:20:12;;;;;;;3.15;2.20;;;22.10;50.40;;;;;;5065284;28;20035;-40
2022/03/16 03:22:38;;;;;;;3.20;2.20;;;22.10;50.40;;;;;;5065498;28;20047;-40
2022/03/16 03:25:05;;;;;;;2.65;2.10;;;22.10;50.40;;;;;;5054131;28;20290;-39
2022/03/16 03:27:32;;;;;;;2.75;2.05;;;22.10;50.50;;;;;;5045156;28;20095;-39
2022/03/16 03:29:59;;;;;;;2.70;2.33;;;22.10;50.60;;;;;;5043771;28;20060;-39
2022/03/16 03:32:25;;;;;;;4.88;2.33;;;22.20;50.50;;;;;;5055702;28;20039;-39
2022/03/16 03:34:51;;;;;;;3.13;2.55;;;22.20;50.50;;;;;;5065058;28;20406;-39
2022/03/16 03:37:18;;;;;;;2.77;1.87;;;22.20;50.50;;;;;;5064057;28;20413;-41
2022/03/16 03:39:45;;;;;;;3.60;2.50;;;22.10;50.50;;;;;;5065372;28;20032;-39
2022/03/16 03:42:11;;;;;;;3.30;2.20;;;22.10;50.50;;;;;;5055515;28;20036;-39
2022/03/16 03:44:37;;;;;;;3.13;2.35;;;22.10;50.60;;;;;;5064950;28;20036;-40
2022/03/16 03:47:07;;;;;;;2.95;2.30;;;22.10;50.50;;;;;;5064873;28;20037;-40
2022/03/16 03:49:34;;;;;;;3.30;2.42;;;22.10;50.70;;;;;;5064945;28;20035;-40
2022/03/16 03:52:00;;;;;;;3.00;2.28;;;22.10;50.70;;;;;;5064404;28;20029;-40
2022/03/16 03:54:26;;;;;;;3.20;2.35;;;22.10;50.60;;;;;;5064881;28;20044;-40
2022/03/16 03:56:53;;;;;;;2.90;2.35;;;22.10;50.70;;;;;;5064708;28;20031;-40
2022/03/16 03:59:20;;;;;;;2.90;2.42;;;22.10;50.70;;;;;;5064745;28;20025;-40
2022/03/16 04:01:46;;;;;;;2.13;1.92;;;22.10;50.70;;;;;;5063293;28;20025;-40
2022/03/16 04:04:12;;;;;;;4.50;2.13;;;22.00;50.60;;;;;;5064905;28;20033;-40
2022/03/16 04:06:38;;;;;;;2.53;2.10;;;22.10;50.80;;;;;;5064639;28;20033;-40
2022/03/16 04:09:05;;;;;;;2.63;2.25;;;22.10;50.80;;;;;;5063721;28;20040;-40
2022/03/16 04:11:32;;;;;;;3.20;2.47;;;22.10;50.90;;;;;;5064203;28;20033;-40
2022/03/16 04:13:58;;;;;;;2.60;2.40;;;22.10;50.80;;;;;;5064381;28;20047;-40
2022/03/16 04:16:24;;;;;;;2.60;2.28;;;22.10;50.80;;;;;;5064397;28;20529;-40
2022/03/16 04:18:50;;;;;;;2.63;2.20;;;22.10;50.80;;;;;;5064341;28;20037;-38
2022/03/16 04:21:16;;;;;;;2.47;2.28;;;22.10;50.80;;;;;;5064164;28;20323;-38
2022/03/16 04:23:42;;;;;;;3.40;2.20;;;22.10;50.90;;;;;;5063996;28;20051;-39
2022/03/16 04:26:08;;;;;;;2.58;2.15;;;22.10;50.80;;;;;;5044238;28;20049;-39
2022/03/16 04:28:35;;;;;;;1.98;1.77;;;22.00;50.70;;;;;;5044122;28;20032;-39
2022/03/16 04:31:01;;;;;;;2.60;2.00;;;22.10;50.80;;;;;;5043979;28;20036;-39
2022/03/16 04:33:30;;;;;;;2.75;2.13;;;22.10;50.90;;;;;;5062946;28;20024;-39
2022/03/16 04:35:57;;;;;;;2.97;2.08;;;22.10;50.90;;;;;;5064369;28;20462;-38
2022/03/16 04:38:23;;;;;;;2.30;1.85;;;22.10;50.90;;;;;;5062879;28;20033;-38
2022/03/16 04:40:49;;;;;;;2.35;2.13;;;22.10;50.90;;;;;;5055971;28;20029;-38
2022/03/16 04:43:15;;;;;;;3.75;1.85;;;22.10;50.90;;;;;;5043485;28;20045;-38
2022/03/16 04:45:41;;;;;;;2.33;2.13;;;22.00;51.40;;;;;;5043939;28;20057;-38
2022/03/16 04:48:08;;;;;;;3.58;2.30;;;22.00;50.90;;;;;;5043979;28;20030;-38
2022/03/16 04:50:37;;;;;;;;;;;22.00;50.90;;;;;;5044119;28;20084;-38
2022/03/16 04:53:03;;;;;;;3.05;2.17;;;22.00;51.00;;;;;;5043643;28;19913;-38
2022/03/16 04:55:30;;;;;;;2.60;2.20;;;22.00;51.00;;;;;;5062847;28;20183;-38
2022/03/16 04:57:56;;;;;;;2.40;2.05;;;22.10;51.00;;;;;;5063659;28;20144;-38
2022/03/16 05:00:22;;;;;;;3.15;2.25;;;22.00;50.80;;;;;;5063624;28;20052;-38
2022/03/16 05:02:48;;;;;;;2.75;2.17;;;22.00;50.90;;;;;;5061180;28;20023;-39
2022/03/16 05:05:14;;;;;;;2.72;2.10;;;22.00;51.00;;;;;;5063581;28;20083;-39
2022/03/16 05:07:40;;;;;;;2.80;2.38;;;22.00;51.00;;;;;;5057826;28;20025;-39
2022/03/16 05:10:07;;;;;;;2.53;1.80;;;22.00;51.00;;;;;;5045450;28;20182;-39
2022/03/16 05:12:40;;;;;;;3.00;2.20;;;22.00;51.00;;;;;;5046727;28;20034;-39
2022/03/16 05:15:08;;;;;;;3.17;2.38;;;22.00;51.10;;;;;;5053186;28;20040;-39
2022/03/16 05:17:35;;;;;;;3.17;2.20;;;22.00;51.10;;;;;;5063155;28;20059;-39
2022/03/16 05:20:01;;;;;;;3.92;2.20;;;22.00;51.10;;;;;;5063459;28;20020;-38
2022/03/16 05:22:27;;;;;;;2.78;2.30;;;22.00;51.00;;;;;;5063025;28;20029;-38
2022/03/16 05:24:53;;;;;;;2.45;1.95;;;22.00;51.10;;;;;;5062784;28;20106;-37
2022/03/16 05:27:20;;;;;;;3.00;2.22;;;22.00;51.10;;;;;;5062934;28;20037;-38
2022/03/16 05:29:47;;;;;;;2.80;1.92;;;22.00;51.10;;;;;;5063224;28;20029;-39
2022/03/16 05:32:14;;;;;;;2.58;2.20;;;22.00;51.10;;;;;;5061395;28;20029;-38
2022/03/16 05:34:40;;;;;;;1.95;1.73;;;22.00;51.10;;;;;;5062193;28;20083;-38
2022/03/16 05:37:06;;;;;;;3.22;2.08;;;22.00;51.10;;;;;;5061995;28;20029;-38
2022/03/16 05:39:33;;;;;;;2.33;2.13;;;22.00;51.30;;;;;;5043108;28;20078;-38
2022/03/16 05:42:02;;;;;;;2.20;2.00;;;22.00;51.20;;;;;;5059697;28;20292;-39
2022/03/16 05:44:28;;;;;;;2.88;2.08;;;22.00;51.20;;;;;;5062822;28;20029;-38
2022/03/16 05:46:56;;;;;;;3.63;2.30;;;22.00;51.20;;;;;;5062723;28;20052;-38
2022/03/16 05:49:25;;;;;;;2.03;1.80;;;22.00;51.20;;;;;;5062897;28;20029;-38
2022/03/16 05:51:51;;;;;;;2.72;2.00;;;22.00;51.20;;;;;;5062646;28;20033;-38
2022/03/16 05:54:17;;;;;;;1.92;1.70;;;22.00;51.20;;;;;;5057968;28;20056;-38
2022/03/16 05:56:44;;;;;;;2.63;1.95;;;21.90;51.20;;;;;;5062490;28;20138;-38
2022/03/16 05:59:10;;;;;;;2.20;1.75;;;22.00;51.20;;;;;;5062703;28;20021;-37
2022/03/16 06:01:36;;;;;;;2.42;2.00;;;22.00;51.40;;;;;;5050143;28;20731;-38
2022/03/16 06:04:02;;;;;;;2.97;2.03;;;22.00;51.20;;;;;;5042407;28;20033;-38
2022/03/16 06:06:29;;;;;;;2.65;2.00;;;22.00;51.30;;;;;;5042512;28;20048;-38
2022/03/16 06:08:55;;;;;;;;;;;22.00;51.30;;;;;;5058620;28;20033;-38
2022/03/16 06:11:21;;;;;;;2.38;1.90;;;21.90;51.30;;;;;;5061899;28;19916;-38
2022/03/16 06:13:47;;;;;;;2.15;1.90;;;21.90;51.30;;;;;;5062259;28;20040;-38
2022/03/16 06:16:14;;;;;;;2.60;2.00;;;21.90;51.30;;;;;;5062425;28;20021;-38
2022/03/16 06:18:40;;;;;;;3.00;2.00;;;21.90;51.20;;;;;;5062453;28;20025;-38
2022/03/16 06:21:06;;;;;;;2.53;1.98;;;21.90;51.30;;;;;;5062585;28;20055;-37
2022/03/16 06:23:32;;;;;;;3.55;1.95;;;22.00;51.50;;;;;;5061854;28;20037;-38
2022/03/16 06:25:58;;;;;;;2.47;2.10;;;22.00;51.30;;;;;;5061755;28;20075;-38
2022/03/16 06:28:24;;;;;;;1.95;1.70;;;22.00;51.20;;;;;;5062287;28;20107;-39
2022/03/16 06:30:50;;;;;;;2.42;1.83;;;22.00;51.30;;;;;;5062362;28;20050;-39
2022/03/16 06:33:17;;;;;;;2.35;2.00;;;22.00;51.30;;;;;;5061912;28;20036;-39
2022/03/16 06:35:43;;;;;;;2.80;1.90;;;21.90;51.30;;;;;;5062195;28;20029;-39
2022/03/16 06:38:09;;;;;;;2.22;1.95;;;21.90;51.30;;;;;;5060940;28;20033;-39
2022/03/16 06:40:35;;;;;;;2.67;1.70;;;21.90;51.30;;;;;;5062239;28;20029;-39
2022/03/16 06:43:01;;;;;;;2.05;1.70;;;21.90;51.20;;;;;;5061866;28;20028;-39
2022/03/16 06:45:28;;;;;;;1.90;1.67;;;21.90;51.50;;;;;;5062254;28;20029;-40
2022/03/16 06:47:55;;;;;;;2.05;1.58;;;22.00;51.30;;;;;;5064577;28;20521;-39
2022/03/16 06:50:21;;;;;;;3.30;2.22;;;22.00;51.30;;;;;;5064987;28;20032;-39
2022/03/16 06:52:47;;;;;;;2.30;1.90;;;21.90;51.30;;;;;;5065940;28;20035;-39
2022/03/16 06:55:13;;;;;;;2.25;1.70;;;21.90;51.30;;;;;;5060655;28;20033;-39
2022/03/16 06:57:39;;;;;;;2.67;1.88;;;21.90;51.40;;;;;;5066078;28;20050;-38
2022/03/16 07:00:07;;;;;;;3.50;1.58;;;21.90;51.40;;;;;;5065899;28;20025;-38
2022/03/16 07:02:53;;;;;;;2.35;2.00;;;21.90;51.40;;;;;;5064683;28;20021;-38
2022/03/16 07:05:20;;;;;;;1.70;1.60;;;21.90;51.50;;;;;;5065604;28;20051;-39
2022/03/16 07:07:46;;;;;;;2.33;1.75;;;22.00;51.50;;;;;;5065657;28;20032;-39
2022/03/16 07:10:12;;;;;;;2.05;1.70;;;21.90;51.30;;;;;;5065964;28;20033;-38
2022/03/16 07:12:38;;;;;;;2.22;1.40;;;21.90;51.50;;;;;;5057044;28;20051;-38
2022/03/16 07:15:05;;;;;;;2.67;1.83;;;21.90;51.50;;;;;;5054674;28;20116;-38
2022/03/16 07:17:31;;;;;;;2.80;2.17;;;21.90;51.50;;;;;;5064565;28;20028;-38
2022/03/16 07:19:57;;;;;;;2.05;1.67;;;21.90;51.40;;;;;;5065388;28;20021;-37
2022/03/16 07:22:23;;;;;;;1.92;1.65;;;21.90;51.40;;;;;;5065745;28;20029;-38
2022/03/16 07:24:50;;;;;;;2.30;1.40;;;21.90;51.60;;;;;;5056042;28;20589;-38
2022/03/16 07:27:16;;;;;;;2.30;1.77;;;21.90;51.50;;;;;;5045400;28;20037;-37
2022/03/16 07:29:42;;;;;;;2.08;1.45;;;21.90;51.50;;;;;;5045649;28;20025;-45
2022/03/16 07:32:09;;;;;;;2.42;1.60;;;21.90;51.50;;;;;;5045563;28;20021;-38
2022/03/16 07:34:35;;;;;;;2.08;1.73;;;21.90;51.50;;;;;;5045634;28;20187;-38
2022/03/16 07:37:01;;;;;;;2.33;1.60;;;21.90;51.60;;;;;;5045207;28;20034;-37
2022/03/16 07:39:27;;;;;;;2.22;1.60;;;21.90;51.50;;;;;;5064250;28;20025;-37
2022/03/16 07:41:53;;;;;;;2.22;1.40;;;21.80;51.50;;;;;;5061872;28;20467;-37
2022/03/16 07:44:19;;;;;;;2.00;1.55;;;21.90;51.60;;;;;;5065270;28;20060;-37
2022/03/16 07:46:45;;;;;;;1.52;1.38;;;21.90;51.70;;;;;;5064824;28;20040;-38
2022/03/16 07:49:11;;;;;;;1.60;1.42;;;21.90;51.70;;;;;;5065302;28;20029;-38
2022/03/16 07:51:37;;;;;;;1.38;1.25;;;21.90;51.60;;;;;;5064981;28;20055;-38
2022/03/16 07:54:03;;;;;;;1.90;1.48;;;21.90;51.60;;;;;;5065241;28;20025;-37
2022/03/16 07:56:29;;;;;;;1.63;1.40;;;21.90;51.60;;;;;;5064845;28;20028;-38
2022/03/16 07:58:58;;;;;;;2.15;1.50;;;21.90;51.60;;;;;;5064473;28;20055;-38
2022/03/16 08:01:24;;;;;;;1.38;1.27;;;21.80;51.60;;;;;;5065133;28;20033;-38
2022/03/16 08:03:50;;;;;;;1.50;1.30;;;21.80;51.60;;;;;;5065004;28;20111;-38
2022/03/16 08:06:16;;;;;;;1.90;1.30;;;21.90;51.70;;;;;;5063991;28;20100;-37
2022/03/16 08:08:42;;;;;;;2.03;1.50;;;21.90;51.80;;;;;;5064821;28;20017;-38
2022/03/16 08:11:09;;;;;;;1.50;1.20;;;21.90;51.80;;;;;;5054120;28;20537;-38
2022/03/16 08:13:36;;;;;;;1.40;1.20;;;21.90;51.70;;;;;;5044976;28;20025;-38
2022/03/16 08:16:03;;;;;;;1.08;0.93;;;21.90;51.70;;;;;;5061756;28;20025;-37
2022/03/16 08:18:29;;;;;;;1.38;1.08;;;21.90;51.70;;;;;;5064631;28;20025;-37
2022/03/16 08:20:56;;;;;;;1.70;1.20;;;21.90;51.80;;;;;;5064040;28;20037;-37
2022/03/16 08:23:22;;;;;;;1.80;1.20;;;21.80;51.70;;;;;;5064672;28;20029;-38
2022/03/16 08:25:48;;;;;;;2.05;1.30;;;21.80;51.60;;;;;;5046676;28;20056;-39
2022/03/16 08:28:14;;;;;;;1.42;1.00;;;21.80;51.60;;;;;;5044348;28;20057;-38
2022/03/16 08:30:41;;;;;;;2.53;1.25;;;21.90;51.90;;;;;;5044725;28;20120;-38
2022/03/16 08:33:07;;;;;;;1.48;1.20;;;21.90;51.90;;;;;;5044594;28;20017;-39
2022/03/16 08:35:34;;;;;;;1.35;1.10;;;21.90;51.70;;;;;;5044371;28;20093;-39
2022/03/16 08:38:00;;;;;;;1.42;1.17;;;21.90;51.80;;;;;;5051594;28;20056;-40
2022/03/16 08:40:26;;;;;;;1.20;1.10;;;21.80;51.80;;;;;;5064438;28;20028;-38
2022/03/16 08:42:52;;;;;;;1.58;0.90;;;21.80;51.80;;;;;;5064189;28;20576;-39
2022/03/16 08:45:19;;;;;;;1.50;0.98;;;21.80;51.70;;;;;;5064219;28;20047;-39
2022/03/16 08:47:45;;;;;;;1.42;1.10;;;21.80;51.70;;;;;;5063724;28;20036;-39
2022/03/16 08:50:11;;;;;;;1.15;1.00;;;21.80;51.70;;;;;;5063986;28;20040;-39
2022/03/16 08:52:38;;;;;;;1.60;1.30;;;21.90;52.00;;;;;;5064481;28;20032;-39
2022/03/16 08:55:05;;;;;;;1.27;0.90;;;21.90;51.90;;;;;;5064086;28;20029;-39
2022/03/16 08:57:32;;;;;;;0.90;0.80;;;21.80;51.70;;;;;;5063187;28;20017;-38
2022/03/16 08:59:58;;;;;;;1.60;1.23;;;21.80;51.80;;;;;;5063902;28;20500;-38
2022/03/16 09:02:24;;;;;;;1.52;0.90;;;21.80;51.80;;;;;;5063855;28;20043;-38
2022/03/16 09:04:52;;;;;;;1.27;1.00;;;21.80;51.80;;;;;;5063821;28;20036;-38
2022/03/16 09:07:18;;;;;;;0.85;0.70;;;21.80;51.90;;;;;;5062692;28;20044;-39
2022/03/16 09:09:44;;;;;;;1.50;1.00;;;21.80;51.90;;;;;;5062848;28;20025;-39
2022/03/16 09:12:11;;;;;;;1.00;0.90;;;21.90;52.10;;;;;;5044811;28;20167;-38
2022/03/16 09:14:38;;;;;;;1.40;1.10;;;21.90;52.00;;;;;;5046328;28;20041;-38
2022/03/16 09:17:05;;;;;;;0.93;0.80;;;21.90;51.80;;;;;;5043603;28;20091;-38
2022/03/16 09:19:33;;;;;;;;;;;21.90;51.90;;;;;;5046888;28;20041;-38
2022/03/16 09:22:00;;;;;;;0.90;0.70;;;21.80;51.90;;;;;;5043674;28;19980;-38
2022/03/16 09:24:26;;;;;;;1.10;0.90;;;21.80;51.90;;;;;;5054051;28;20025;-39
2022/03/16 09:26:54;;;;;;;1.05;0.95;;;21.80;51.90;;;;;;5052687;28;20053;-39
2022/03/16 09:29:20;;;;;;;1.42;0.98;;;21.80;52.00;;;;;;5043286;28;20055;-38
2022/03/16 09:31:47;;;;;;;1.73;1.00;;;21.80;51.90;;;;;;5043396;28;20035;-39
2022/03/16 09:34:13;;;;;;;1.00;0.85;;;21.90;52.10;;;;;;5043670;28;20025;-39
2022/03/16 09:36:42;;;;;;;1.48;1.00;;;21.90;51.90;;;;;;5046414;28;20029;-39
2022/03/16 09:39:09;;;;;;;1.23;0.90;;;21.90;52.00;;;;;;5062015;28;20036;-39
2022/03/16 09:41:36;;;;;;;0.60;0.60;;;21.80;52.00;;;;;;5063027;28;20025;-38
2022/03/16 09:44:04;;;;;;;0.98;0.82;;;21.80;52.00;;;;;;5063221;28;20375;-37
2022/03/16 09:46:31;;;;;;;1.10;0.65;;;21.80;52.00;;;;;;5063309;28;20047;-38
2022/03/16 09:48:57;;;;;;;;;;;21.80;52.00;;;;;;5063259;28;20029;-38
2022/03/16 09:51:24;;;;;;;0.63;0.60;;;21.80;52.10;;;;;;5063220;28;19916;-38
2022/03/16 09:53:50;;;;;;;0.75;0.70;;;21.80;52.20;;;;;;5042860;28;20061;-37
2022/03/16 09:56:19;;;;;;;0.98;0.70;;;21.80;52.00;;;;;;5063039;28;20040;-38
2022/03/16 09:58:45;;;;;;;0.93;0.75;;;21.80;52.00;;;;;;5062518;28;20115;-38
2022/03/16 10:01:11;;;;;;;0.93;0.77;;;21.80;52.00;;;;;;5062903;28;20021;-38
2022/03/16 10:03:37;;;;;;;1.02;0.90;;;21.80;52.00;;;;;;5063127;28;20108;-39
2022/03/16 10:06:06;;;;;;;0.82;0.80;;;21.80;52.00;;;;;;5063001;28;20037;-39
2022/03/16 10:08:35;;;;;;;2.60;0.93;;;21.80;52.00;;;;;;5061738;28;20021;-39
2022/03/16 10:14:11;;;;;;;0.75;0.70;;;21.80;52.00;;;;;;5058492;28;20051;-39
2022/03/16 10:19:31;;;;;;;0.73;0.60;;;21.80;51.90;;;;;;5032939;28;20135;-39
2022/03/16 10:22:00;;;;;;;0.63;0.60;;;21.80;52.00;;;;;;5062256;28;20033;-39
2022/03/16 10:24:30;;;;;;;0.85;0.63;;;21.80;52.00;;;;;;5062868;28;20602;-39
2022/03/16 10:26:59;;;;;;;1.13;0.75;;;21.80;52.10;;;;;;5062269;28;20080;-38
2022/03/16 10:29:31;;;;;;;0.70;0.65;;;21.70;52.00;;;;;;5062417;28;20025;-38
2022/03/16 10:32:06;;;;;;;0.50;0.45;;;21.70;52.00;;;;;;5062655;28;20032;-39
2022/03/16 10:34:32;;;;;;;0.98;0.63;;;21.70;52.00;;;;;;5062565;28;20055;-39
2022/03/16 10:36:59;;;;;;;0.50;0.50;;;21.80;52.10;;;;;;5062623;28;20028;-39
2022/03/16 10:39:35;;;;;;;0.77;0.77;;;21.80;52.10;;;;;;5061510;28;20033;-39
2022/03/16 10:48:15;;;;;;;0.88;0.65;;;21.80;52.00;;;;;;5062554;28;20237;-40
2022/03/16 10:50:42;;;;;;;1.40;0.60;;;21.80;52.60;;;;;;5062507;28;20054;-39
2022/03/16 10:53:14;;;;;;;0.50;0.50;;;21.70;52.00;;;;;;5062389;28;20092;-40
2022/03/16 10:55:40;;;;;;;0.55;0.47;;;21.80;52.10;;;;;;5058742;28;20048;-39
2022/03/16 10:58:07;;;;;;;0.70;0.50;;;21.80;52.30;;;;;;5062176;28;20048;-39
2022/03/16 11:00:36;;;;;;;0.70;0.52;;;21.80;52.10;;;;;;5062067;28;20057;-39
2022/03/16 11:03:09;;;;;;;0.90;0.60;;;21.80;52.00;;;;;;5062278;28;20033;-39
2022/03/16 11:05:39;;;;;;;0.60;0.60;;;21.80;52.10;;;;;;5060974;28;20447;-40
2022/03/16 11:08:08;;;;;;;0.35;0.35;;;21.70;52.10;;;;;;5051006;28;20646;-40
2022/03/16 11:10:39;;;;;;;0.50;0.40;;;21.70;52.10;;;;;;5041964;28;20037;-40
2022/03/16 11:15:54;;;;;;;0.60;0.50;;;21.80;52.10;;;;;;5042340;28;20021;-39
2022/03/16 11:18:21;;;;;;;0.52;0.50;;;21.80;52.30;;;;;;5041997;28;20033;-39
2022/03/16 11:20:48;;;;;;;0.60;0.50;;;21.80;52.20;;;;;;5041915;28;20040;-39
2022/03/16 11:26:14;;;;;;;0.93;0.80;;;21.80;52.20;;;;;;5042367;28;20100;-39
2022/03/16 11:29:08;;;;;;;0.50;0.50;;;21.80;52.20;;;;;;5061749;28;20119;-39
2022/03/16 11:31:34;;;;;;;0.88;0.70;;;21.80;52.20;;;;;;5060530;28;20410;-39
2022/03/16 11:34:05;;;;;;;0.73;0.60;;;21.70;52.10;;;;;;5064425;28;20033;-39
2022/03/16 11:36:34;;;;;;;0.65;0.40;;;21.70;52.20;;;;;;5065058;28;20032;-39
2022/03/16 11:39:02;;;;;;;0.68;0.50;;;21.80;52.20;;;;;;5049166;28;20033;-39
2022/03/16 11:41:29;;;;;;;0.40;0.30;;;21.80;52.30;;;;;;5058643;28;20021;-39
2022/03/16 11:44:28;;;;;;;0.40;0.40;;;21.80;52.20;;;;;;5065163;28;20021;-39
2022/03/16 11:47:10;;;;;;;0.32;0.32;;;21.80;52.20;;;;;;5064807;28;20075;-39
2022/03/16 11:49:38;;;;;;;0.75;0.40;;;21.80;52.40;;;;;;5065120;28;20029;-39
2022/03/16 11:52:05;;;;;;;0.40;0.30;;;21.70;52.30;;;;;;5065115;28;20017;-39
2022/03/16 11:54:44;;;;;;;0.57;0.32;;;21.70;52.30;;;;;;5060831;28;20021;-39
2022/03/16 11:57:11;;;;;;;0.50;0.30;;;21.70;52.20;;;;;;5064881;28;20033;-39
2022/03/16 11:59:44;;;;;;;0.25;0.25;;;21.80;52.30;;;;;;5064847;28;20075;-40
2022/03/16 12:02:27;;;;;;;0.30;0.30;;;21.80;52.40;;;;;;5065025;28;20040;-39
2022/03/16 12:05:01;;;;;;;0.68;0.50;;;21.80;52.20;;;;;;5064939;28;20706;-39
2022/03/16 12:07:30;;;;;;;0.57;0.40;;;21.80;52.30;;;;;;5061614;28;20033;-39
2022/03/16 12:10:02;;;;;;;0.60;0.50;;;21.80;52.30;;;;;;5045207;28;20026;-39
2022/03/16 12:15:37;;;;;;;0.40;0.40;;;21.70;52.30;;;;;;5064548;28;20039;-39
2022/03/16 12:18:11;;;;;;;0.28;0.28;;;21.70;52.30;;;;;;5064876;28;20055;-40
2022/03/16 12:20:45;;;;;;;0.30;0.30;;;21.70;52.30;;;;;;5064415;28;20032;-39
2022/03/16 12:23:19;;;;;;;0.30;0.30;;;21.80;52.50;;;;;;5064417;28;20108;-39
2022/03/16 12:25:47;;;;;;;0.38;0.30;;;21.80;52.30;;;;;;5064474;28;20258;-39
2022/03/16 12:31:15;;;;;;;0.52;0.30;;;21.70;52.30;;;;;;5064193;28;20171;-40
2022/03/16 12:33:43;;;;;;;0.25;0.20;;;21.70;52.30;;;;;;5064407;28;20029;-39
2022/03/16 12:36:11;;;;;;;0.43;0.35;;;21.70;52.30;;;;;;5064281;28;20055;-39
2022/03/16 12:38:39;;;;;;;0.30;0.20;;;21.70;52.20;;;;;;5063384;28;20021;-39
2022/03/16 12:44:01;;;;;;;0.38;0.32;;;21.70;52.40;;;;;;5063994;28;20059;-39
2022/03/16 12:46:36;;;;;;;0.38;0.30;;;21.80;52.30;;;;;;5064100;28;20037;-39
2022/03/16 12:49:22;;;;;;;0.25;0.25;;;21.80;52.40;;;;;;5062904;28;20033;-39
2022/03/16 12:51:52;;;;;;;0.60;0.40;;;21.80;52.40;;;;;;5063783;28;20029;-39
2022/03/16 12:54:26;;;;;;;0.43;0.30;;;21.70;52.40;;;;;;5064066;28;20081;-39
2022/03/16 12:57:02;;;;;;;0.30;0.30;;;21.70;52.40;;;;;;5063780;28;20385;-39
2022/03/16 12:59:35;;;;;;;0.50;0.30;;;21.70;52.40;;;;;;5063568;28;20028;-39
2022/03/16 13:02:05;;;;;;;0.20;0.20;;;21.70;52.40;;;;;;5063522;28;20033;-39
2022/03/16 13:04:31;;;;;;;0.30;0.20;;;21.70;52.40;;;;;;5047495;28;20668;-39
2022/03/16 13:06:58;;;;;;;0.20;0.20;;;21.80;52.40;;;;;;5043494;28;20105;-39
2022/03/16 13:09:31;;;;;;;0.30;0.15;;;21.70;52.20;;;;;;5061290;28;20093;-39
2022/03/16 13:12:11;;;;;;;0.20;0.20;;;21.70;52.40;;;;;;5045984;28;20029;-40
2022/03/16 13:14:43;;;;;;;0.68;0.50;;;21.70;52.40;;;;;;5043769;28;20032;-38